Time;durP1;ratioP1;P1;durP2;ratioP2;P2;SDS_P1;SDS_P2;PMS_P1;PMS_P2;Temp;Humidity;BMP_temperature;BMP_pressure;BME280_temperature;BME280_humidity;BME280_pressure;Samples;Min_cycle;Max_cycle;Signal;HPM_P1;HPM_P2
2023/08/06 00:02:03;;;;;;;3.90;3.60;;;20.50;81.10;;;;;;5047093;28;20596;-74
2023/08/06 00:04:31;;;;;;;3.43;3.23;;;20.50;81.10;;;;;;5048955;28;20566;-74
2023/08/06 00:06:59;;;;;;;4.40;4.03;;;20.60;81.00;;;;;;5045507;28;20478;-74
2023/08/06 00:09:28;;;;;;;4.47;4.07;;;20.60;81.00;;;;;;5049812;28;20477;-73
2023/08/06 00:11:57;;;;;;;4.00;3.70;;;20.60;80.90;;;;;;5048081;28;20480;-74
2023/08/06 00:14:25;;;;;;;3.97;3.30;;;20.60;80.90;;;;;;5048275;28;20459;-75
2023/08/06 00:16:54;;;;;;;4.60;4.20;;;20.60;80.80;;;;;;5048090;28;20474;-74
2023/08/06 00:19:22;;;;;;;4.63;4.00;;;20.60;80.70;;;;;;5048636;28;20469;-74
2023/08/06 00:21:50;;;;;;;3.97;3.43;;;20.60;80.50;;;;;;5046501;28;20519;-75
2023/08/06 00:24:19;;;;;;;4.37;3.97;;;20.60;80.50;;;;;;5046832;28;20562;-73
2023/08/06 00:26:47;;;;;;;3.40;3.10;;;20.60;80.60;;;;;;5046520;28;20457;-75
2023/08/06 00:29:16;;;;;;;3.50;3.20;;;20.60;80.60;;;;;;5040816;28;20466;-73
2023/08/06 00:31:45;;;;;;;4.37;3.97;;;20.60;80.40;;;;;;5046765;28;20468;-74
2023/08/06 00:34:13;;;;;;;3.70;3.50;;;20.60;80.50;;;;;;5046939;28;20458;-73
2023/08/06 00:36:43;;;;;;;3.37;3.17;;;20.50;81.00;;;;;;5047707;28;20507;-74
2023/08/06 00:39:11;;;;;;;4.30;4.00;;;20.50;80.70;;;;;;5044395;28;20534;-74
2023/08/06 00:41:39;;;;;;;4.00;3.70;;;20.50;80.40;;;;;;5047472;28;20453;-74
2023/08/06 00:44:07;;;;;;;4.07;3.67;;;20.50;80.50;;;;;;5045722;28;20516;-74
2023/08/06 00:46:37;;;;;;;3.90;3.60;;;20.50;80.30;;;;;;5046486;28;20874;-73
2023/08/06 00:49:05;;;;;;;4.37;3.67;;;20.40;80.50;;;;;;5048249;28;20474;-74
2023/08/06 00:51:35;;;;;;;4.97;4.50;;;20.40;80.50;;;;;;5043743;28;20481;-74
2023/08/06 00:54:04;;;;;;;4.80;4.30;;;20.40;80.50;;;;;;5047613;28;20464;-73
2023/08/06 00:56:35;;;;;;;5.93;5.40;;;20.30;80.80;;;;;;5046758;28;20946;-74
2023/08/06 00:59:04;;;;;;;4.67;4.23;;;20.30;80.90;;;;;;5045802;28;20565;-75
2023/08/06 01:01:33;;;;;;;3.93;3.63;;;20.30;80.80;;;;;;5043424;28;20494;-74
2023/08/06 01:04:03;;;;;;;4.10;3.77;;;20.20;81.00;;;;;;5045088;28;20464;-74
2023/08/06 01:06:38;;;;;;;5.53;4.10;;;20.20;80.80;;;;;;5047096;28;20591;-74
2023/08/06 01:09:18;;;;;;;4.20;3.87;;;20.20;81.00;;;;;;5048230;28;20484;-75
2023/08/06 01:11:55;;;;;;;4.43;4.03;;;20.20;81.00;;;;;;5050456;28;20960;-74
2023/08/06 01:14:31;;;;;;;4.03;3.43;;;20.10;81.20;;;;;;5050363;28;21027;-75
2023/08/06 01:17:02;;;;;;;3.43;3.23;;;20.10;80.90;;;;;;5049699;28;21056;-74
2023/08/06 01:19:32;;;;;;;3.60;3.30;;;20.10;81.30;;;;;;5051229;28;20469;-75
2023/08/06 01:22:01;;;;;;;3.60;3.20;;;20.10;81.10;;;;;;5049685;28;20462;-74
2023/08/06 01:24:30;;;;;;;3.60;3.30;;;20.20;80.60;;;;;;5050752;28;20464;-73
2023/08/06 01:27:05;;;;;;;3.20;3.00;;;20.20;80.40;;;;;;5049535;28;20969;-73
2023/08/06 01:29:40;;;;;;;3.40;3.10;;;20.20;80.50;;;;;;5050150;28;20481;-74
2023/08/06 01:32:11;;;;;;;3.33;2.93;;;20.20;80.20;;;;;;5049251;28;20893;-75
2023/08/06 01:34:42;;;;;;;3.20;2.90;;;20.20;80.10;;;;;;5049691;28;20461;-74
2023/08/06 01:37:12;;;;;;;4.63;2.90;;;20.10;79.90;;;;;;5048617;28;20935;-73
2023/08/06 01:39:43;;;;;;;3.30;3.10;;;20.10;79.90;;;;;;5051457;28;20470;-74
2023/08/06 01:42:11;;;;;;;3.53;2.90;;;20.00;79.90;;;;;;5051149;28;20810;-73
2023/08/06 01:44:40;;;;;;;3.43;3.23;;;20.00;80.10;;;;;;5048317;28;20480;-73
2023/08/06 01:47:09;;;;;;;3.60;3.30;;;19.90;80.10;;;;;;5050836;28;20454;-73
2023/08/06 01:49:37;;;;;;;3.00;2.80;;;19.90;80.20;;;;;;5049553;28;22190;-73
2023/08/06 01:52:06;;;;;;;2.60;2.40;;;19.90;80.20;;;;;;5049852;28;20460;-74
2023/08/06 01:54:36;;;;;;;2.80;2.60;;;19.90;80.10;;;;;;5049328;28;20472;-73
2023/08/06 01:57:05;;;;;;;3.10;2.77;;;19.80;80.30;;;;;;5049280;28;20468;-74
2023/08/06 01:59:34;;;;;;;3.13;2.83;;;19.80;80.00;;;;;;5046856;28;20468;-73
2023/08/06 02:02:03;;;;;;;3.03;2.73;;;19.80;80.20;;;;;;5048379;28;20987;-74
2023/08/06 02:04:31;;;;;;;3.37;2.93;;;19.80;80.30;;;;;;5045983;28;20463;-73
2023/08/06 02:06:59;;;;;;;3.13;2.93;;;19.80;80.20;;;;;;5076817;28;20467;-73
2023/08/06 02:09:27;;;;;;;3.10;2.80;;;19.70;80.40;;;;;;5048605;28;20480;-73
2023/08/06 02:11:57;;;;;;;2.33;2.20;;;19.70;80.30;;;;;;5042031;28;20463;-74
2023/08/06 02:14:25;;;;;;;3.40;2.60;;;19.70;80.30;;;;;;5045424;28;20476;-74
2023/08/06 02:16:53;;;;;;;3.17;2.87;;;19.80;80.20;;;;;;5045732;28;20510;-75
2023/08/06 02:19:21;;;;;;;3.63;3.10;;;19.70;80.40;;;;;;5048565;28;20467;-74
2023/08/06 02:21:50;;;;;;;3.03;2.80;;;19.60;80.60;;;;;;5049660;28;20480;-75
2023/08/06 02:24:18;;;;;;;2.80;2.47;;;19.60;80.60;;;;;;5057856;28;20470;-75
2023/08/06 02:26:49;;;;;;;2.90;2.70;;;19.60;80.80;;;;;;5043853;28;21201;-74
2023/08/06 02:29:18;;;;;;;2.80;2.60;;;19.70;80.70;;;;;;5049807;28;20897;-73
2023/08/06 02:31:47;;;;;;;3.00;2.80;;;19.70;80.60;;;;;;5048737;28;20461;-73
2023/08/06 02:34:15;;;;;;;2.80;2.60;;;19.70;80.50;;;;;;5048664;28;21130;-73
2023/08/06 02:36:43;;;;;;;2.63;2.43;;;19.70;80.40;;;;;;5049650;28;20480;-74
2023/08/06 02:39:11;;;;;;;3.50;3.20;;;19.70;80.40;;;;;;5047915;28;20461;-73
2023/08/06 02:41:40;;;;;;;3.20;3.00;;;19.70;80.50;;;;;;5074623;22;21066;-87
2023/08/06 02:44:08;;;;;;;2.93;2.73;;;19.70;80.50;;;;;;5064422;28;20467;-87
2023/08/06 02:46:38;;;;;;;2.90;2.60;;;19.70;80.60;;;;;;5067951;28;20825;-86
2023/08/06 02:49:07;;;;;;;4.57;3.23;;;19.70;80.80;;;;;;5067006;28;20471;-87
2023/08/06 02:51:36;;;;;;;3.03;2.83;;;19.70;80.80;;;;;;5069271;28;20474;-87
2023/08/06 02:54:04;;;;;;;3.03;2.83;;;19.70;80.70;;;;;;5081038;28;20951;-86
2023/08/06 02:56:34;;;;;;;2.87;2.67;;;19.70;80.70;;;;;;5083510;28;20496;-87
2023/08/06 02:59:17;;;;;;;3.23;2.93;;;19.70;80.60;;;;;;5066799;28;20469;-87
2023/08/06 03:01:54;;;;;;;2.90;2.70;;;19.70;80.50;;;;;;5067705;28;20463;-87
2023/08/06 03:04:30;;;;;;;2.60;2.40;;;19.70;80.60;;;;;;5083107;28;20456;-86
2023/08/06 03:06:58;;;;;;;2.63;2.43;;;19.80;80.50;;;;;;5048017;28;20456;-87
2023/08/06 03:09:35;;;;;;;2.90;2.70;;;19.80;80.70;;;;;;5083924;28;20552;-87
2023/08/06 03:12:03;;;;;;;2.60;2.40;;;19.80;80.50;;;;;;5072549;28;20491;-87
2023/08/06 03:14:32;;;;;;;2.67;2.47;;;19.80;80.40;;;;;;5062637;28;20595;-86
2023/08/06 03:17:06;;;;;;;3.70;3.40;;;19.90;80.40;;;;;;5067523;28;20921;-87
2023/08/06 03:19:34;;;;;;;5.80;2.97;;;19.90;80.20;;;;;;5068135;28;20511;-86
2023/08/06 03:22:04;;;;;;;3.23;3.00;;;19.90;80.20;;;;;;5080290;28;20556;-87
2023/08/06 03:27:33;;;;;;;2.27;2.17;;;19.90;80.10;;;;;;4836650;29;21306;-86
2023/08/06 03:30:02;;;;;;;3.50;3.07;;;19.80;80.20;;;;;;4865222;29;20501;-85
2023/08/06 03:32:32;;;;;;;3.13;2.80;;;19.80;80.20;;;;;;4856859;29;20466;-86
2023/08/06 03:35:01;;;;;;;2.83;2.63;;;19.80;80.10;;;;;;4860074;29;20961;-86
2023/08/06 03:37:31;;;;;;;2.43;2.23;;;19.70;80.40;;;;;;4857262;29;20480;-85
2023/08/06 03:39:59;;;;;;;3.30;3.10;;;19.60;80.50;;;;;;4852351;29;20476;-85
2023/08/06 03:42:27;;;;;;;2.37;2.20;;;19.60;80.50;;;;;;4856330;29;20866;-86
2023/08/06 03:44:55;;;;;;;2.93;2.73;;;19.60;80.30;;;;;;4858758;29;20485;-85
2023/08/06 03:47:24;;;;;;;2.27;2.07;;;19.60;80.10;;;;;;4861521;29;20489;-85
2023/08/06 03:49:54;;;;;;;2.30;2.20;;;19.60;79.90;;;;;;4851032;29;20493;-86
2023/08/06 03:52:23;;;;;;;2.20;2.10;;;19.60;79.90;;;;;;4872017;29;20477;-86
2023/08/06 03:54:51;;;;;;;2.63;2.43;;;19.50;79.90;;;;;;4872960;29;20463;-86
2023/08/06 03:57:19;;;;;;;3.10;2.90;;;19.50;79.90;;;;;;4857518;29;20465;-85
2023/08/06 03:59:47;;;;;;;2.60;2.40;;;19.40;80.00;;;;;;4858014;29;21092;-85
2023/08/06 04:02:24;;;;;;;2.53;2.33;;;19.40;80.20;;;;;;4857956;29;20477;-82
2023/08/06 04:04:54;;;;;;;2.27;2.00;;;19.50;79.60;;;;;;4857889;29;20458;-83
2023/08/06 04:07:22;;;;;;;2.27;2.07;;;19.40;79.70;;;;;;4855698;29;20470;-83
2023/08/06 04:09:58;;;;;;;3.93;2.20;;;19.30;79.80;;;;;;4857266;29;21242;-83
2023/08/06 04:12:27;;;;;;;3.70;3.00;;;19.30;79.80;;;;;;4857508;29;20462;-83
2023/08/06 04:14:55;;;;;;;2.43;2.30;;;19.20;79.90;;;;;;4858603;29;20457;-83
2023/08/06 04:17:23;;;;;;;4.03;2.50;;;19.30;79.70;;;;;;4858400;29;20453;-83
2023/08/06 04:19:55;;;;;;;3.00;2.80;;;19.30;79.60;;;;;;4862606;29;20487;-83
2023/08/06 04:22:23;;;;;;;3.33;2.30;;;19.20;79.70;;;;;;4844807;29;20898;-83
2023/08/06 04:24:51;;;;;;;4.40;2.57;;;19.10;80.00;;;;;;4858312;29;20469;-83
2023/08/06 04:27:21;;;;;;;2.90;2.70;;;19.20;80.20;;;;;;4857374;29;20964;-83
2023/08/06 04:29:50;;;;;;;3.20;2.53;;;19.20;80.00;;;;;;4857247;29;20478;-83
2023/08/06 04:32:19;;;;;;;2.00;1.90;;;19.20;80.00;;;;;;4857128;29;20469;-83
2023/08/06 04:34:51;;;;;;;2.47;2.27;;;19.30;79.80;;;;;;4857636;29;20468;-83
2023/08/06 04:37:20;;;;;;;2.50;2.30;;;19.40;79.70;;;;;;4857360;29;20466;-83
2023/08/06 04:39:49;;;;;;;2.10;2.00;;;19.40;79.60;;;;;;4867955;29;20484;-83
2023/08/06 04:42:19;;;;;;;3.03;2.40;;;19.40;79.40;;;;;;4858764;29;20479;-83
2023/08/06 04:44:47;;;;;;;2.80;2.40;;;19.40;79.30;;;;;;4859414;29;20476;-83
2023/08/06 04:47:18;;;;;;;2.70;2.50;;;19.50;79.20;;;;;;4862317;29;20466;-83
2023/08/06 04:49:46;;;;;;;1.97;1.77;;;19.50;79.20;;;;;;4851050;29;20490;-83
2023/08/06 04:52:14;;;;;;;2.53;2.33;;;19.40;79.20;;;;;;4848835;29;20541;-83
2023/08/06 04:54:45;;;;;;;4.83;2.80;;;19.40;79.10;;;;;;4847786;29;20457;-83
2023/08/06 04:57:13;;;;;;;2.63;2.43;;;19.50;79.00;;;;;;4846746;29;20577;-82
2023/08/06 04:59:41;;;;;;;2.90;2.70;;;19.50;79.00;;;;;;4852327;29;20856;-84
2023/08/06 05:02:09;;;;;;;2.37;2.23;;;19.40;79.10;;;;;;4849347;29;20464;-83
2023/08/06 05:04:37;;;;;;;2.30;2.10;;;19.40;79.30;;;;;;4851107;29;20464;-83
2023/08/06 05:07:06;;;;;;;3.40;2.47;;;19.40;79.20;;;;;;4850171;29;20955;-83
2023/08/06 05:09:35;;;;;;;2.33;2.23;;;19.40;79.10;;;;;;4862459;29;20469;-83
2023/08/06 05:12:05;;;;;;;2.63;2.43;;;19.30;79.30;;;;;;4849303;29;20947;-83
2023/08/06 05:14:33;;;;;;;2.30;2.10;;;19.30;79.40;;;;;;4846541;29;20557;-83
2023/08/06 05:17:04;;;;;;;2.07;1.97;;;19.40;79.40;;;;;;4852943;29;20469;-83
2023/08/06 05:19:32;;;;;;;2.80;2.60;;;19.40;79.50;;;;;;4850862;29;20465;-83
2023/08/06 05:22:00;;;;;;;3.07;2.87;;;19.40;79.50;;;;;;4852105;29;20492;-84
2023/08/06 05:24:29;;;;;;;2.50;2.30;;;19.40;79.20;;;;;;4849703;29;20465;-83
2023/08/06 05:26:57;;;;;;;2.60;2.40;;;19.30;79.40;;;;;;4854915;29;20501;-83
2023/08/06 05:29:27;;;;;;;2.20;2.10;;;19.20;80.10;;;;;;4849082;29;20843;-83
2023/08/06 05:31:55;;;;;;;2.07;1.87;;;19.20;80.10;;;;;;4846466;29;20564;-83
2023/08/06 05:34:23;;;;;;;2.27;2.10;;;19.20;80.20;;;;;;4848604;29;20528;-83
2023/08/06 05:36:52;;;;;;;2.17;1.97;;;19.10;80.20;;;;;;4851821;29;20841;-83
2023/08/06 05:39:20;;;;;;;3.00;2.07;;;19.00;80.30;;;;;;4849472;29;20476;-83
2023/08/06 05:41:50;;;;;;;3.83;2.33;;;19.00;80.40;;;;;;4849949;29;20540;-82
2023/08/06 05:44:18;;;;;;;2.77;2.40;;;18.90;80.50;;;;;;4848993;29;20550;-82
2023/08/06 05:46:48;;;;;;;3.43;2.03;;;18.90;80.70;;;;;;4851145;29;20517;-83
2023/08/06 05:49:16;;;;;;;2.30;2.10;;;18.90;80.60;;;;;;4863933;29;21018;-83
2023/08/06 05:51:44;;;;;;;2.27;1.93;;;19.00;80.80;;;;;;4849793;29;20882;-84
2023/08/06 05:54:12;;;;;;;2.17;2.03;;;18.90;80.50;;;;;;4854659;29;20555;-83
2023/08/06 05:56:41;;;;;;;3.13;2.67;;;18.90;80.80;;;;;;4857701;29;20456;-82
2023/08/06 05:59:09;;;;;;;2.27;1.70;;;19.00;80.80;;;;;;4860180;29;20460;-82
2023/08/06 06:01:37;;;;;;;2.27;2.07;;;19.00;80.80;;;;;;4853960;29;20559;-83
2023/08/06 06:04:06;;;;;;;2.70;2.50;;;18.90;80.90;;;;;;4860897;29;20452;-83
2023/08/06 06:06:35;;;;;;;2.93;2.30;;;19.00;81.10;;;;;;4860553;29;20464;-82
2023/08/06 06:09:03;;;;;;;2.40;2.20;;;19.00;80.90;;;;;;4859835;29;20953;-83
2023/08/06 06:11:31;;;;;;;3.00;2.40;;;19.10;80.70;;;;;;4857135;29;20586;-82
2023/08/06 06:13:59;;;;;;;2.10;1.90;;;19.10;80.80;;;;;;4859452;29;20570;-83
2023/08/06 06:16:27;;;;;;;2.30;2.10;;;19.10;80.80;;;;;;4857562;29;20949;-83
2023/08/06 06:18:57;;;;;;;3.00;2.40;;;19.00;81.30;;;;;;4859650;29;20453;-83
2023/08/06 06:21:26;;;;;;;2.53;2.33;;;19.10;81.40;;;;;;4858428;29;20491;-82
2023/08/06 06:23:54;;;;;;;2.37;2.17;;;19.10;80.90;;;;;;4855981;29;20547;-82
2023/08/06 06:26:23;;;;;;;2.43;1.87;;;19.20;81.20;;;;;;4855867;29;20500;-82
2023/08/06 06:28:51;;;;;;;3.17;2.00;;;19.20;81.00;;;;;;4858570;29;20868;-83
2023/08/06 06:31:19;;;;;;;1.83;1.73;;;19.30;81.60;;;;;;4857666;29;21038;-83
2023/08/06 06:33:47;;;;;;;2.60;2.10;;;19.30;81.30;;;;;;4854436;29;20477;-83
2023/08/06 06:36:15;;;;;;;1.80;1.70;;;19.40;80.80;;;;;;4858847;29;20530;-82
2023/08/06 06:38:45;;;;;;;1.73;1.63;;;19.40;81.00;;;;;;4859124;29;20490;-85
2023/08/06 06:41:13;;;;;;;2.07;1.87;;;19.50;80.60;;;;;;4863425;29;20519;-86
2023/08/06 06:43:41;;;;;;;2.17;1.67;;;19.60;79.90;;;;;;4855649;29;20999;-85
2023/08/06 06:46:09;;;;;;;1.80;1.70;;;19.60;80.20;;;;;;4854548;29;20528;-85
2023/08/06 06:48:38;;;;;;;2.17;1.80;;;19.60;80.20;;;;;;4855939;29;20490;-86
2023/08/06 06:51:06;;;;;;;1.97;1.87;;;19.70;79.90;;;;;;4855586;29;21302;-85
2023/08/06 06:53:34;;;;;;;3.50;1.33;;;19.60;79.60;;;;;;4847699;29;20961;-85
2023/08/06 06:56:05;;;;;;;2.80;1.70;;;19.60;80.10;;;;;;4852773;29;20469;-85
2023/08/06 06:58:34;;;;;;;1.80;1.70;;;19.70;79.60;;;;;;4857644;29;20476;-85
2023/08/06 07:01:02;;;;;;;2.43;2.00;;;19.80;79.00;;;;;;4858486;29;20533;-85
2023/08/06 07:03:30;;;;;;;2.97;1.40;;;19.80;79.20;;;;;;4858911;29;20457;-85
2023/08/06 07:05:59;;;;;;;1.60;1.50;;;19.90;78.90;;;;;;4857217;29;20569;-85
2023/08/06 07:08:27;;;;;;;1.33;1.23;;;19.90;77.90;;;;;;4858229;29;20456;-85
2023/08/06 07:11:02;;;;;;;1.60;1.50;;;19.90;77.30;;;;;;4858892;29;20485;-85
2023/08/06 07:13:32;;;;;;;2.30;1.50;;;19.90;77.40;;;;;;4854588;29;20489;-86
2023/08/06 07:16:00;;;;;;;3.17;1.40;;;19.90;77.60;;;;;;4854819;29;20468;-85
2023/08/06 07:18:28;;;;;;;1.40;1.30;;;20.00;77.80;;;;;;4856193;29;20569;-86
2023/08/06 07:20:57;;;;;;;1.30;1.17;;;20.10;77.50;;;;;;4856566;29;20989;-86
2023/08/06 07:23:27;;;;;;;2.63;1.47;;;20.10;76.80;;;;;;4855073;29;20525;-86
2023/08/06 07:25:55;;;;;;;2.13;1.37;;;20.20;76.60;;;;;;4855381;29;20494;-85
2023/08/06 07:28:23;;;;;;;1.80;1.23;;;20.20;76.20;;;;;;4854030;29;20558;-86
2023/08/06 07:30:52;;;;;;;2.00;1.40;;;20.20;76.80;;;;;;4856281;29;20461;-86
2023/08/06 07:33:21;;;;;;;1.37;1.03;;;20.10;76.20;;;;;;4857987;29;20979;-86
2023/08/06 07:35:49;;;;;;;0.87;0.77;;;20.10;76.50;;;;;;4850248;29;20504;-86
2023/08/06 07:38:17;;;;;;;0.90;0.90;;;20.10;76.50;;;;;;4855622;29;20517;-86
2023/08/06 07:40:46;;;;;;;1.27;1.10;;;20.10;76.10;;;;;;4856737;29;20459;-85
2023/08/06 07:43:14;;;;;;;0.70;0.70;;;20.10;76.10;;;;;;4854626;29;20468;-85
2023/08/06 07:45:42;;;;;;;1.00;0.80;;;20.10;75.50;;;;;;4855540;29;20889;-86
2023/08/06 07:48:12;;;;;;;0.80;0.80;;;20.10;75.70;;;;;;4856189;29;20542;-86
2023/08/06 07:50:40;;;;;;;1.10;1.00;;;20.20;75.90;;;;;;4856483;29;20462;-86
2023/08/06 07:53:08;;;;;;;1.10;1.00;;;20.30;76.00;;;;;;4855061;29;20481;-86
2023/08/06 07:55:36;;;;;;;0.50;0.50;;;20.30;74.70;;;;;;4853431;29;20491;-86
2023/08/06 07:58:05;;;;;;;1.47;0.80;;;20.40;74.10;;;;;;4858212;29;20471;-86
2023/08/06 08:00:33;;;;;;;0.60;0.60;;;20.50;74.00;;;;;;4853799;29;20558;-86
2023/08/06 08:03:01;;;;;;;1.07;0.70;;;20.60;73.50;;;;;;4859370;29;20451;-86
2023/08/06 08:05:31;;;;;;;1.33;0.57;;;20.70;72.90;;;;;;4857035;29;20822;-87
2023/08/06 08:08:00;;;;;;;0.50;0.50;;;20.60;72.30;;;;;;4854808;29;20572;-85
2023/08/06 08:10:28;;;;;;;1.23;0.50;;;20.60;72.70;;;;;;4857582;29;20885;-87
2023/08/06 08:12:56;;;;;;;1.03;0.50;;;20.60;72.30;;;;;;4857852;29;20474;-85
2023/08/06 08:15:26;;;;;;;0.87;0.37;;;20.50;72.70;;;;;;4855929;29;20543;-86
2023/08/06 08:17:54;;;;;;;0.40;0.30;;;20.60;72.80;;;;;;4857585;29;20462;-85
2023/08/06 08:20:22;;;;;;;0.40;0.40;;;20.60;72.10;;;;;;4857408;29;20892;-86
2023/08/06 08:22:52;;;;;;;1.33;0.40;;;20.60;72.50;;;;;;4856403;29;20467;-86
2023/08/06 08:25:20;;;;;;;0.53;0.40;;;20.70;72.50;;;;;;4857475;29;20520;-85
2023/08/06 08:27:48;;;;;;;0.90;0.47;;;20.80;72.50;;;;;;4859084;29;20906;-87
2023/08/06 08:30:16;;;;;;;1.53;0.43;;;20.80;72.10;;;;;;4861272;29;20534;-84
2023/08/06 08:32:44;;;;;;;0.50;0.50;;;20.80;73.00;;;;;;4859758;29;20490;-85
2023/08/06 08:35:13;;;;;;;0.50;0.50;;;20.80;72.50;;;;;;4859698;29;20568;-85
2023/08/06 08:37:41;;;;;;;0.50;0.50;;;20.70;72.60;;;;;;4857874;29;20470;-85
2023/08/06 08:40:12;;;;;;;1.00;0.40;;;20.60;73.80;;;;;;4857299;29;20484;-84
2023/08/06 08:42:40;;;;;;;0.47;0.47;;;20.50;74.20;;;;;;4860496;29;20479;-86
2023/08/06 08:45:13;;;;;;;1.23;0.50;;;20.40;74.70;;;;;;4856542;29;20998;-86
2023/08/06 08:47:42;;;;;;;0.30;0.30;;;20.30;75.10;;;;;;4859887;29;20467;-85
2023/08/06 08:50:13;;;;;;;0.47;0.43;;;20.40;75.40;;;;;;4859758;29;20484;-85
2023/08/06 08:52:41;;;;;;;0.60;0.40;;;20.30;75.60;;;;;;4861270;29;20580;-85
2023/08/06 08:55:11;;;;;;;0.50;0.43;;;20.20;76.10;;;;;;4857611;29;20466;-85
2023/08/06 08:57:39;;;;;;;0.40;0.40;;;20.10;76.40;;;;;;4854994;29;20462;-86
2023/08/06 09:00:08;;;;;;;0.63;0.40;;;20.00;76.50;;;;;;4855197;29;20554;-87
2023/08/06 09:02:40;;;;;;;0.50;0.50;;;20.00;76.10;;;;;;4855059;29;21052;-85
2023/08/06 09:05:10;;;;;;;0.33;0.33;;;20.00;76.10;;;;;;4856599;29;20465;-86
2023/08/06 09:07:43;;;;;;;0.80;0.40;;;19.90;76.00;;;;;;4860251;29;20460;-85
2023/08/06 09:10:17;;;;;;;0.83;0.40;;;20.00;76.50;;;;;;4856322;29;20476;-85
2023/08/06 09:12:47;;;;;;;2.07;0.67;;;20.00;76.50;;;;;;4859915;29;20592;-84
2023/08/06 09:15:15;;;;;;;0.50;0.40;;;20.00;75.70;;;;;;4858798;29;20468;-85
2023/08/06 09:17:43;;;;;;;1.17;0.50;;;20.00;76.50;;;;;;4854274;29;20544;-84
2023/08/06 09:20:13;;;;;;;0.40;0.40;;;20.00;77.00;;;;;;4859808;29;20452;-85
2023/08/06 09:22:44;;;;;;;0.50;0.50;;;19.90;77.10;;;;;;4858604;29;20456;-86
2023/08/06 09:25:21;;;;;;;0.90;0.40;;;19.90;76.90;;;;;;4858366;29;20463;-85
2023/08/06 09:27:49;;;;;;;0.60;0.60;;;19.90;77.30;;;;;;4857556;29;20457;-86
2023/08/06 09:30:31;;;;;;;0.43;0.43;;;19.90;77.60;;;;;;4851260;29;21059;-86
2023/08/06 09:32:59;;;;;;;0.70;0.40;;;19.90;77.20;;;;;;4854712;29;20493;-86
2023/08/06 09:35:30;;;;;;;0.50;0.50;;;19.80;77.70;;;;;;4852389;29;20457;-85
2023/08/06 09:38:07;;;;;;;1.00;0.70;;;19.80;77.60;;;;;;4850399;29;20489;-85
2023/08/06 09:40:38;;;;;;;0.50;0.50;;;19.80;77.90;;;;;;4850676;29;20475;-85
2023/08/06 09:43:07;;;;;;;0.97;0.60;;;19.70;78.30;;;;;;4850595;29;20535;-85
2023/08/06 09:45:37;;;;;;;1.27;0.43;;;19.50;78.90;;;;;;4854197;29;20519;-85
2023/08/06 09:48:06;;;;;;;0.50;0.40;;;19.40;79.30;;;;;;4858505;29;20469;-82
2023/08/06 09:50:36;;;;;;;2.00;0.60;;;19.40;79.80;;;;;;4860101;29;20461;-84
2023/08/06 09:53:05;;;;;;;0.70;0.47;;;19.40;79.70;;;;;;4860801;29;20533;-82
2023/08/06 09:55:34;;;;;;;1.47;0.60;;;19.30;79.00;;;;;;4857606;29;20475;-84
2023/08/06 09:58:06;;;;;;;0.57;0.50;;;19.20;79.40;;;;;;4862212;29;20480;-82
2023/08/06 10:00:35;;;;;;;0.40;0.30;;;19.20;79.60;;;;;;4858724;29;20476;-85
2023/08/06 10:03:08;;;;;;;0.60;0.60;;;19.20;79.70;;;;;;4854626;29;20473;-82
2023/08/06 10:05:38;;;;;;;0.83;0.40;;;19.10;80.20;;;;;;4859281;29;20456;-83
2023/08/06 10:08:07;;;;;;;0.33;0.30;;;19.10;80.50;;;;;;4855859;29;20496;-83
2023/08/06 10:10:36;;;;;;;0.97;0.97;;;18.90;81.10;;;;;;4859032;29;20528;-82
2023/08/06 10:13:08;;;;;;;0.50;0.40;;;18.80;81.20;;;;;;4856671;29;20511;-81
2023/08/06 10:15:38;;;;;;;0.30;0.30;;;18.80;81.90;;;;;;4858149;29;20483;-83
2023/08/06 10:18:07;;;;;;;0.93;0.50;;;18.80;81.50;;;;;;4857384;29;20472;-82
2023/08/06 10:20:36;;;;;;;0.70;0.53;;;18.80;81.20;;;;;;4857157;29;20987;-82
2023/08/06 10:23:05;;;;;;;0.83;0.60;;;18.70;82.00;;;;;;4853663;29;20472;-82
2023/08/06 10:25:35;;;;;;;0.93;0.43;;;18.80;82.40;;;;;;4856985;29;20492;-82
2023/08/06 10:28:11;;;;;;;1.17;0.40;;;18.80;82.30;;;;;;4852016;29;20543;-82
2023/08/06 10:30:46;;;;;;;0.50;0.50;;;18.90;82.40;;;;;;4856707;29;20962;-83
2023/08/06 10:33:16;;;;;;;0.50;0.40;;;19.00;82.40;;;;;;4855067;29;20495;-81
2023/08/06 10:35:49;;;;;;;0.90;0.53;;;19.10;82.30;;;;;;4856511;29;20954;-82
2023/08/06 10:38:18;;;;;;;0.47;0.30;;;19.20;81.80;;;;;;4857605;29;20965;-81
2023/08/06 10:40:50;;;;;;;0.53;0.50;;;19.30;81.70;;;;;;4857128;29;20456;-82
2023/08/06 10:43:31;;;;;;;0.40;0.40;;;19.40;80.90;;;;;;4857645;29;20483;-82
2023/08/06 10:46:00;;;;;;;0.40;0.40;;;19.50;80.90;;;;;;4857193;29;21133;-84
2023/08/06 10:48:34;;;;;;;0.80;0.50;;;19.60;80.80;;;;;;4857283;29;20464;-82
2023/08/06 10:51:03;;;;;;;0.80;0.57;;;19.70;80.50;;;;;;4857641;29;20618;-83
2023/08/06 10:53:31;;;;;;;0.87;0.50;;;19.70;80.60;;;;;;4857196;29;20484;-82
2023/08/06 10:56:01;;;;;;;0.63;0.53;;;19.80;80.30;;;;;;4857690;29;20528;-82
2023/08/06 10:58:34;;;;;;;2.30;0.43;;;19.80;79.80;;;;;;4858941;29;20982;-82
2023/08/06 11:01:02;;;;;;;1.37;0.50;;;19.60;80.90;;;;;;4859617;29;20444;-83
2023/08/06 11:03:32;;;;;;;0.87;0.40;;;19.60;81.30;;;;;;4858769;29;21019;-82
2023/08/06 11:06:00;;;;;;;0.50;0.40;;;19.60;80.80;;;;;;4854871;29;20934;-83
2023/08/06 11:08:30;;;;;;;0.40;0.30;;;19.60;80.40;;;;;;4858745;29;20957;-82
2023/08/06 11:11:10;;;;;;;0.47;0.37;;;19.70;80.20;;;;;;4859555;29;20588;-82
2023/08/06 11:13:40;;;;;;;0.40;0.40;;;19.70;80.10;;;;;;4858667;29;20537;-82
2023/08/06 11:16:09;;;;;;;0.33;0.33;;;19.60;79.80;;;;;;4859680;29;20456;-82
2023/08/06 11:18:37;;;;;;;0.93;0.40;;;19.60;80.40;;;;;;4858628;29;20462;-82
2023/08/06 11:21:05;;;;;;;0.43;0.40;;;19.50;80.60;;;;;;4859603;29;20465;-81
2023/08/06 11:23:34;;;;;;;0.73;0.63;;;19.50;80.70;;;;;;4857246;29;20498;-82
2023/08/06 11:26:03;;;;;;;0.40;0.40;;;19.50;81.10;;;;;;4856223;29;20562;-82
2023/08/06 11:28:31;;;;;;;0.40;0.30;;;19.50;81.20;;;;;;4856343;29;20560;-82
2023/08/06 11:31:02;;;;;;;0.80;0.50;;;19.40;80.90;;;;;;4858611;29;20509;-81
2023/08/06 11:33:31;;;;;;;2.00;0.40;;;19.40;81.50;;;;;;4858723;29;20515;-82
2023/08/06 11:36:00;;;;;;;0.40;0.40;;;19.30;81.30;;;;;;4859489;29;20456;-81
2023/08/06 11:38:29;;;;;;;1.47;0.43;;;19.30;81.40;;;;;;4858146;29;20448;-81
2023/08/06 11:40:57;;;;;;;0.40;0.30;;;19.30;81.40;;;;;;4859144;29;20504;-81
2023/08/06 11:43:25;;;;;;;0.40;0.40;;;19.30;81.40;;;;;;4858221;29;20453;-81
2023/08/06 11:45:57;;;;;;;0.40;0.40;;;19.30;81.70;;;;;;4858166;29;20463;-81
2023/08/06 11:48:27;;;;;;;0.50;0.40;;;19.40;81.50;;;;;;4858867;29;20931;-81
2023/08/06 11:50:57;;;;;;;0.50;0.47;;;19.40;81.10;;;;;;4858641;29;20446;-81
2023/08/06 11:53:28;;;;;;;0.40;0.40;;;19.40;80.90;;;;;;4857318;29;20488;-81
2023/08/06 11:55:57;;;;;;;0.70;0.50;;;19.50;81.50;;;;;;4852493;29;20465;-81
2023/08/06 11:58:25;;;;;;;0.60;0.33;;;19.60;81.00;;;;;;4857708;29;20469;-82
2023/08/06 12:00:54;;;;;;;0.60;0.43;;;19.60;80.60;;;;;;4858496;29;20869;-81
2023/08/06 12:03:27;;;;;;;1.07;0.50;;;19.60;80.50;;;;;;4853311;29;20470;-82
2023/08/06 12:05:56;;;;;;;0.90;0.40;;;19.70;80.50;;;;;;4858362;29;20538;-81
2023/08/06 12:08:28;;;;;;;0.43;0.33;;;19.70;80.60;;;;;;4857641;29;20532;-82
2023/08/06 12:10:56;;;;;;;0.30;0.30;;;19.70;80.00;;;;;;4858989;29;20466;-81
2023/08/06 12:13:24;;;;;;;0.60;0.30;;;19.60;80.40;;;;;;4857672;29;20494;-82
2023/08/06 12:15:53;;;;;;;0.53;0.40;;;19.60;80.60;;;;;;4857142;29;20472;-81
2023/08/06 12:18:22;;;;;;;0.97;0.40;;;19.70;80.20;;;;;;4856894;29;20859;-82
2023/08/06 12:20:50;;;;;;;2.73;0.40;;;19.60;80.30;;;;;;4860955;29;20509;-83
2023/08/06 12:23:19;;;;;;;0.30;0.30;;;19.60;80.40;;;;;;4857377;29;20492;-82
2023/08/06 12:25:49;;;;;;;0.50;0.30;;;19.60;79.80;;;;;;4858294;29;20540;-81
2023/08/06 12:28:17;;;;;;;0.50;0.40;;;19.60;79.80;;;;;;4854351;29;20449;-81
2023/08/06 12:30:47;;;;;;;0.40;0.40;;;19.70;79.50;;;;;;4856334;29;20471;-81
2023/08/06 12:33:15;;;;;;;0.40;0.30;;;19.70;79.90;;;;;;4854607;29;20444;-83
2023/08/06 12:35:43;;;;;;;2.63;0.43;;;19.70;79.80;;;;;;4856987;29;20488;-81
2023/08/06 12:38:11;;;;;;;0.77;0.33;;;19.80;79.70;;;;;;4857758;29;20556;-82
2023/08/06 12:40:41;;;;;;;0.30;0.30;;;19.80;79.70;;;;;;4857618;29;20457;-82
2023/08/06 12:43:11;;;;;;;0.47;0.47;;;19.90;79.90;;;;;;4857618;29;20464;-82
2023/08/06 12:45:39;;;;;;;0.40;0.30;;;19.90;79.80;;;;;;4858158;29;20465;-81
2023/08/06 12:48:07;;;;;;;0.60;0.47;;;20.00;79.60;;;;;;4858085;29;20466;-84
2023/08/06 12:50:37;;;;;;;0.40;0.40;;;20.10;79.00;;;;;;4858023;29;20468;-83
2023/08/06 12:53:05;;;;;;;0.40;0.33;;;20.20;78.10;;;;;;4857842;29;20449;-84
2023/08/06 12:55:33;;;;;;;0.63;0.40;;;20.30;78.60;;;;;;4857162;29;20547;-84
2023/08/06 12:58:03;;;;;;;0.30;0.30;;;20.40;78.40;;;;;;4857336;29;20952;-85
2023/08/06 13:00:32;;;;;;;0.40;0.30;;;20.50;77.90;;;;;;4858087;29;20445;-84
2023/08/06 13:03:00;;;;;;;2.00;0.40;;;20.60;77.80;;;;;;4857634;29;20499;-86